sensor_id;sensor_type;location;lat;lon;timestamp;P1;durP1;ratioP1;P2;durP2;ratioP2
43606;SDS011;29197;44.788;10.366;2022-12-17T00:02:28;18.93;;;12.53;;
43606;SDS011;29197;44.788;10.366;2022-12-17T00:05:35;18.37;;;12.03;;
43606;SDS011;29197;44.788;10.366;2022-12-17T00:08:43;16.90;;;10.97;;
43606;SDS011;29197;44.788;10.366;2022-12-17T00:11:50;14.67;;;10.50;;
43606;SDS011;29197;44.788;10.366;2022-12-17T00:14:56;14.47;;;10.63;;
43606;SDS011;29197;44.788;10.366;2022-12-17T00:18:02;14.97;;;11.43;;
43606;SDS011;29197;44.788;10.366;2022-12-17T00:21:09;20.53;;;12.03;;
43606;SDS011;29197;44.788;10.366;2022-12-17T00:24:17;18.83;;;12.83;;
43606;SDS011;29197;44.788;10.366;2022-12-17T00:27:24;14.10;;;10.40;;
43606;SDS011;29197;44.788;10.366;2022-12-17T00:30:31;14.67;;;10.23;;
43606;SDS011;29197;44.788;10.366;2022-12-17T00:33:38;14.37;;;10.77;;
43606;SDS011;29197;44.788;10.366;2022-12-17T00:36:44;16.33;;;11.83;;
43606;SDS011;29197;44.788;10.366;2022-12-17T00:39:52;17.50;;;12.07;;
43606;SDS011;29197;44.788;10.366;2022-12-17T00:42:59;21.37;;;11.40;;
43606;SDS011;29197;44.788;10.366;2022-12-17T00:46:06;15.17;;;10.80;;
43606;SDS011;29197;44.788;10.366;2022-12-17T00:49:12;15.43;;;11.20;;
43606;SDS011;29197;44.788;10.366;2022-12-17T00:52:18;16.37;;;11.30;;
43606;SDS011;29197;44.788;10.366;2022-12-17T00:55:27;17.93;;;12.20;;
43606;SDS011;29197;44.788;10.366;2022-12-17T00:58:33;15.43;;;10.67;;
43606;SDS011;29197;44.788;10.366;2022-12-17T01:01:40;13.80;;;10.70;;
43606;SDS011;29197;44.788;10.366;2022-12-17T01:04:46;15.07;;;10.40;;
43606;SDS011;29197;44.788;10.366;2022-12-17T01:07:52;14.53;;;10.30;;
43606;SDS011;29197;44.788;10.366;2022-12-17T01:11:02;14.00;;;10.00;;
43606;SDS011;29197;44.788;10.366;2022-12-17T01:14:10;14.00;;;10.40;;
43606;SDS011;29197;44.788;10.366;2022-12-17T01:17:16;15.60;;;10.23;;
43606;SDS011;29197;44.788;10.366;2022-12-17T01:20:34;13.67;;;10.30;;
43606;SDS011;29197;44.788;10.366;2022-12-17T01:23:44;13.47;;;9.93;;
43606;SDS011;29197;44.788;10.366;2022-12-17T01:26:52;16.80;;;10.77;;
43606;SDS011;29197;44.788;10.366;2022-12-17T01:29:58;15.63;;;10.40;;
43606;SDS011;29197;44.788;10.366;2022-12-17T01:33:05;14.47;;;10.40;;
43606;SDS011;29197;44.788;10.366;2022-12-17T01:36:12;15.77;;;10.20;;
43606;SDS011;29197;44.788;10.366;2022-12-17T01:39:19;15.00;;;10.50;;
43606;SDS011;29197;44.788;10.366;2022-12-17T01:42:27;15.90;;;10.37;;
43606;SDS011;29197;44.788;10.366;2022-12-17T01:45:42;15.27;;;10.07;;
43606;SDS011;29197;44.788;10.366;2022-12-17T01:48:50;14.53;;;10.23;;
43606;SDS011;29197;44.788;10.366;2022-12-17T01:51:56;14.80;;;9.77;;
43606;SDS011;29197;44.788;10.366;2022-12-17T01:55:04;13.07;;;9.30;;
43606;SDS011;29197;44.788;10.366;2022-12-17T01:58:12;15.57;;;9.70;;
43606;SDS011;29197;44.788;10.366;2022-12-17T02:01:18;14.17;;;10.00;;
43606;SDS011;29197;44.788;10.366;2022-12-17T02:04:25;12.70;;;8.80;;
43606;SDS011;29197;44.788;10.366;2022-12-17T02:07:37;15.00;;;9.53;;
43606;SDS011;29197;44.788;10.366;2022-12-17T02:10:52;13.37;;;8.80;;
43606;SDS011;29197;44.788;10.366;2022-12-17T02:14:11;12.33;;;8.77;;
43606;SDS011;29197;44.788;10.366;2022-12-17T02:17:27;13.20;;;9.47;;
43606;SDS011;29197;44.788;10.366;2022-12-17T02:20:42;14.93;;;9.57;;
43606;SDS011;29197;44.788;10.366;2022-12-17T02:23:52;13.93;;;9.77;;
43606;SDS011;29197;44.788;10.366;2022-12-17T02:27:09;13.97;;;9.83;;
43606;SDS011;29197;44.788;10.366;2022-12-17T02:30:17;16.17;;;9.57;;
43606;SDS011;29197;44.788;10.366;2022-12-17T02:33:24;16.17;;;9.80;;
43606;SDS011;29197;44.788;10.366;2022-12-17T02:36:32;11.37;;;8.23;;
43606;SDS011;29197;44.788;10.366;2022-12-17T02:39:39;14.80;;;9.33;;
43606;SDS011;29197;44.788;10.366;2022-12-17T02:42:47;12.90;;;8.87;;
43606;SDS011;29197;44.788;10.366;2022-12-17T02:45:55;15.80;;;9.53;;
43606;SDS011;29197;44.788;10.366;2022-12-17T02:49:02;11.83;;;8.50;;
43606;SDS011;29197;44.788;10.366;2022-12-17T02:52:08;12.33;;;8.70;;
43606;SDS011;29197;44.788;10.366;2022-12-17T02:55:21;14.40;;;9.47;;
43606;SDS011;29197;44.788;10.366;2022-12-17T02:58:28;13.57;;;8.60;;
43606;SDS011;29197;44.788;10.366;2022-12-17T03:01:35;11.70;;;7.80;;
43606;SDS011;29197;44.788;10.366;2022-12-17T03:04:42;14.23;;;8.87;;
43606;SDS011;29197;44.788;10.366;2022-12-17T03:08:09;13.03;;;9.27;;
43606;SDS011;29197;44.788;10.366;2022-12-17T03:11:15;12.10;;;8.67;;
43606;SDS011;29197;44.788;10.366;2022-12-17T03:14:23;16.33;;;9.77;;
43606;SDS011;29197;44.788;10.366;2022-12-17T03:17:30;14.03;;;9.50;;
43606;SDS011;29197;44.788;10.366;2022-12-17T03:20:36;15.20;;;9.33;;
43606;SDS011;29197;44.788;10.366;2022-12-17T03:23:42;14.10;;;8.80;;
43606;SDS011;29197;44.788;10.366;2022-12-17T03:26:49;12.77;;;9.30;;
43606;SDS011;29197;44.788;10.366;2022-12-17T03:29:56;13.83;;;9.80;;
43606;SDS011;29197;44.788;10.366;2022-12-17T03:33:02;14.50;;;10.40;;
43606;SDS011;29197;44.788;10.366;2022-12-17T03:36:09;14.43;;;9.57;;
43606;SDS011;29197;44.788;10.366;2022-12-17T03:39:15;15.77;;;10.13;;
43606;SDS011;29197;44.788;10.366;2022-12-17T03:42:21;15.83;;;10.60;;
43606;SDS011;29197;44.788;10.366;2022-12-17T03:45:29;17.47;;;11.50;;
43606;SDS011;29197;44.788;10.366;2022-12-17T03:48:35;18.17;;;10.57;;
43606;SDS011;29197;44.788;10.366;2022-12-17T03:51:41;14.07;;;9.63;;
43606;SDS011;29197;44.788;10.366;2022-12-17T03:54:47;16.03;;;10.63;;
43606;SDS011;29197;44.788;10.366;2022-12-17T03:57:54;18.20;;;12.47;;
43606;SDS011;29197;44.788;10.366;2022-12-17T04:01:02;19.40;;;11.80;;
43606;SDS011;29197;44.788;10.366;2022-12-17T04:04:09;22.87;;;14.13;;
43606;SDS011;29197;44.788;10.366;2022-12-17T04:07:16;17.03;;;12.30;;
43606;SDS011;29197;44.788;10.366;2022-12-17T04:10:22;22.70;;;13.90;;
43606;SDS011;29197;44.788;10.366;2022-12-17T04:13:29;18.67;;;12.83;;
43606;SDS011;29197;44.788;10.366;2022-12-17T07:39:27;17.50;;;11.87;;
43606;SDS011;29197;44.788;10.366;2022-12-17T07:42:34;17.43;;;12.50;;
43606;SDS011;29197;44.788;10.366;2022-12-17T07:45:41;17.03;;;12.43;;
43606;SDS011;29197;44.788;10.366;2022-12-17T07:49:02;19.57;;;14.20;;
43606;SDS011;29197;44.788;10.366;2022-12-17T07:52:11;18.07;;;12.43;;
43606;SDS011;29197;44.788;10.366;2022-12-17T07:55:20;17.50;;;13.00;;
43606;SDS011;29197;44.788;10.366;2022-12-17T07:58:26;19.87;;;12.33;;
43606;SDS011;29197;44.788;10.366;2022-12-17T08:01:33;17.90;;;12.20;;
43606;SDS011;29197;44.788;10.366;2022-12-17T08:04:40;17.73;;;11.47;;
43606;SDS011;29197;44.788;10.366;2022-12-17T08:07:55;19.17;;;11.20;;
43606;SDS011;29197;44.788;10.366;2022-12-17T08:11:03;17.93;;;12.57;;
43606;SDS011;29197;44.788;10.366;2022-12-17T08:14:09;15.43;;;11.43;;
43606;SDS011;29197;44.788;10.366;2022-12-17T08:17:15;15.33;;;10.87;;
43606;SDS011;29197;44.788;10.366;2022-12-17T08:20:19;15.20;;;10.43;;
43606;SDS011;29197;44.788;10.366;2022-12-17T08:23:25;12.87;;;9.23;;
43606;SDS011;29197;44.788;10.366;2022-12-17T08:26:33;15.87;;;11.60;;
43606;SDS011;29197;44.788;10.366;2022-12-17T08:29:39;17.43;;;11.90;;
43606;SDS011;29197;44.788;10.366;2022-12-17T08:33:02;15.17;;;11.27;;
43606;SDS011;29197;44.788;10.366;2022-12-17T08:36:09;15.93;;;11.67;;
43606;SDS011;29197;44.788;10.366;2022-12-17T08:39:15;15.43;;;11.60;;
43606;SDS011;29197;44.788;10.366;2022-12-17T08:42:24;15.17;;;10.77;;
43606;SDS011;29197;44.788;10.366;2022-12-17T08:45:30;17.77;;;11.07;;
43606;SDS011;29197;44.788;10.366;2022-12-17T08:48:37;15.60;;;10.83;;
43606;SDS011;29197;44.788;10.366;2022-12-17T08:51:43;14.87;;;10.33;;
43606;SDS011;29197;44.788;10.366;2022-12-17T08:54:50;15.37;;;10.73;;
43606;SDS011;29197;44.788;10.366;2022-12-17T08:57:58;14.23;;;10.70;;
43606;SDS011;29197;44.788;10.366;2022-12-17T09:01:04;15.07;;;10.90;;
43606;SDS011;29197;44.788;10.366;2022-12-17T09:04:11;15.47;;;10.37;;
43606;SDS011;29197;44.788;10.366;2022-12-17T09:07:17;16.33;;;10.00;;
43606;SDS011;29197;44.788;10.366;2022-12-17T09:10:23;15.53;;;10.13;;
43606;SDS011;29197;44.788;10.366;2022-12-17T09:13:31;14.20;;;9.50;;
43606;SDS011;29197;44.788;10.366;2022-12-17T09:16:37;15.03;;;9.07;;
43606;SDS011;29197;44.788;10.366;2022-12-17T09:19:44;12.63;;;8.97;;
43606;SDS011;29197;44.788;10.366;2022-12-17T09:22:51;11.30;;;8.70;;
43606;SDS011;29197;44.788;10.366;2022-12-17T09:25:57;12.53;;;8.00;;
43606;SDS011;29197;44.788;10.366;2022-12-17T09:29:04;12.70;;;8.00;;
43606;SDS011;29197;44.788;10.366;2022-12-17T09:32:10;13.30;;;8.43;;
43606;SDS011;29197;44.788;10.366;2022-12-17T09:35:17;11.20;;;7.17;;
43606;SDS011;29197;44.788;10.366;2022-12-17T09:38:23;9.73;;;7.40;;
43606;SDS011;29197;44.788;10.366;2022-12-17T09:41:32;11.57;;;7.33;;
43606;SDS011;29197;44.788;10.366;2022-12-17T09:44:52;10.83;;;6.93;;
43606;SDS011;29197;44.788;10.366;2022-12-17T09:48:06;9.93;;;7.53;;
43606;SDS011;29197;44.788;10.366;2022-12-17T09:51:20;11.17;;;7.70;;
43606;SDS011;29197;44.788;10.366;2022-12-17T09:54:28;11.33;;;7.73;;
43606;SDS011;29197;44.788;10.366;2022-12-17T09:57:46;14.87;;;7.43;;
43606;SDS011;29197;44.788;10.366;2022-12-17T10:00:56;12.57;;;8.43;;
43606;SDS011;29197;44.788;10.366;2022-12-17T10:04:03;10.33;;;8.17;;
43606;SDS011;29197;44.788;10.366;2022-12-17T10:07:14;13.83;;;9.67;;
43606;SDS011;29197;44.788;10.366;2022-12-17T10:10:24;17.20;;;10.77;;
43606;SDS011;29197;44.788;10.366;2022-12-17T10:13:31;21.13;;;12.93;;
43606;SDS011;29197;44.788;10.366;2022-12-17T10:16:43;43.90;;;20.75;;
43606;SDS011;29197;44.788;10.366;2022-12-17T10:19:57;27.23;;;16.73;;
43606;SDS011;29197;44.788;10.366;2022-12-17T10:23:05;19.83;;;10.95;;
43606;SDS011;29197;44.788;10.366;2022-12-17T10:26:24;51.65;;;25.48;;
43606;SDS011;29197;44.788;10.366;2022-12-17T10:29:32;30.92;;;20.17;;
43606;SDS011;29197;44.788;10.366;2022-12-17T10:32:41;16.65;;;11.70;;
43606;SDS011;29197;44.788;10.366;2022-12-17T10:35:48;17.88;;;12.27;;
43606;SDS011;29197;44.788;10.366;2022-12-17T10:38:54;13.18;;;9.43;;
43606;SDS011;29197;44.788;10.366;2022-12-17T10:42:18;12.52;;;9.27;;
43606;SDS011;29197;44.788;10.366;2022-12-17T10:45:26;14.20;;;9.60;;
43606;SDS011;29197;44.788;10.366;2022-12-17T10:48:50;13.45;;;8.55;;
43606;SDS011;29197;44.788;10.366;2022-12-17T10:52:13;10.00;;;7.45;;
43606;SDS011;29197;44.788;10.366;2022-12-17T10:55:29;10.88;;;7.93;;
43606;SDS011;29197;44.788;10.366;2022-12-17T10:58:41;13.00;;;7.97;;
43606;SDS011;29197;44.788;10.366;2022-12-17T11:01:49;10.18;;;7.13;;
43606;SDS011;29197;44.788;10.366;2022-12-17T11:05:04;8.88;;;6.47;;
43606;SDS011;29197;44.788;10.366;2022-12-17T11:08:17;9.77;;;6.85;;
43606;SDS011;29197;44.788;10.366;2022-12-17T11:11:25;8.05;;;6.22;;
43606;SDS011;29197;44.788;10.366;2022-12-17T11:14:31;6.82;;;5.70;;
43606;SDS011;29197;44.788;10.366;2022-12-17T11:17:48;9.60;;;6.63;;
43606;SDS011;29197;44.788;10.366;2022-12-17T11:20:59;9.10;;;7.07;;
43606;SDS011;29197;44.788;10.366;2022-12-17T11:24:11;14.43;;;8.52;;
43606;SDS011;29197;44.788;10.366;2022-12-17T11:27:22;12.98;;;8.70;;
43606;SDS011;29197;44.788;10.366;2022-12-17T11:30:31;11.95;;;8.88;;
43606;SDS011;29197;44.788;10.366;2022-12-17T11:33:46;12.45;;;9.18;;
43606;SDS011;29197;44.788;10.366;2022-12-17T11:37:01;13.15;;;9.18;;
43606;SDS011;29197;44.788;10.366;2022-12-17T11:40:17;13.40;;;9.30;;
43606;SDS011;29197;44.788;10.366;2022-12-17T11:43:30;14.77;;;9.60;;
43606;SDS011;29197;44.788;10.366;2022-12-17T11:46:44;13.05;;;9.02;;
43606;SDS011;29197;44.788;10.366;2022-12-17T11:49:55;12.43;;;9.13;;
43606;SDS011;29197;44.788;10.366;2022-12-17T11:53:16;16.35;;;10.85;;
43606;SDS011;29197;44.788;10.366;2022-12-17T11:56:31;13.77;;;9.95;;
43606;SDS011;29197;44.788;10.366;2022-12-17T11:59:43;13.23;;;10.35;;
43606;SDS011;29197;44.788;10.366;2022-12-17T12:03:06;16.77;;;11.73;;
43606;SDS011;29197;44.788;10.366;2022-12-17T12:06:22;19.60;;;15.18;;
43606;SDS011;29197;44.788;10.366;2022-12-17T12:09:40;17.65;;;12.65;;
43606;SDS011;29197;44.788;10.366;2022-12-17T12:12:55;16.48;;;12.05;;
43606;SDS011;29197;44.788;10.366;2022-12-17T12:16:09;20.27;;;14.40;;
43606;SDS011;29197;44.788;10.366;2022-12-17T12:19:29;17.17;;;12.90;;
43606;SDS011;29197;44.788;10.366;2022-12-17T12:22:47;18.58;;;12.70;;
43606;SDS011;29197;44.788;10.366;2022-12-17T12:26:06;19.10;;;14.30;;
43606;SDS011;29197;44.788;10.366;2022-12-17T12:29:17;19.08;;;13.27;;
43606;SDS011;29197;44.788;10.366;2022-12-17T12:32:33;62.17;;;23.73;;
43606;SDS011;29197;44.788;10.366;2022-12-17T12:35:54;24.43;;;16.23;;
43606;SDS011;29197;44.788;10.366;2022-12-17T12:39:08;20.80;;;14.93;;
43606;SDS011;29197;44.788;10.366;2022-12-17T12:42:20;20.90;;;14.33;;
43606;SDS011;29197;44.788;10.366;2022-12-17T12:45:36;23.67;;;14.10;;
43606;SDS011;29197;44.788;10.366;2022-12-17T12:48:49;21.27;;;13.77;;
43606;SDS011;29197;44.788;10.366;2022-12-17T12:52:00;22.38;;;13.48;;
43606;SDS011;29197;44.788;10.366;2022-12-17T12:55:07;18.97;;;14.47;;
43606;SDS011;29197;44.788;10.366;2022-12-17T12:58:25;22.00;;;15.20;;
43606;SDS011;29197;44.788;10.366;2022-12-17T13:01:32;21.03;;;13.70;;
43606;SDS011;29197;44.788;10.366;2022-12-17T13:04:41;28.87;;;14.83;;
43606;SDS011;29197;44.788;10.366;2022-12-17T13:07:47;28.07;;;15.73;;
43606;SDS011;29197;44.788;10.366;2022-12-17T13:10:37;21.17;;;14.57;;
43606;SDS011;29197;44.788;10.366;2022-12-17T13:13:31;23.60;;;14.83;;
43606;SDS011;29197;44.788;10.366;2022-12-17T13:16:27;21.20;;;13.20;;
43606;SDS011;29197;44.788;10.366;2022-12-17T13:19:34;20.07;;;14.63;;
43606;SDS011;29197;44.788;10.366;2022-12-17T13:22:28;22.20;;;15.60;;
43606;SDS011;29197;44.788;10.366;2022-12-17T13:25:20;30.00;;;17.70;;
43606;SDS011;29197;44.788;10.366;2022-12-17T13:28:25;21.57;;;14.70;;
43606;SDS011;29197;44.788;10.366;2022-12-17T13:31:21;27.07;;;17.37;;
43606;SDS011;29197;44.788;10.366;2022-12-17T13:34:15;22.38;;;15.07;;
43606;SDS011;29197;44.788;10.366;2022-12-17T13:37:09;20.80;;;15.13;;
43606;SDS011;29197;44.788;10.366;2022-12-17T13:40:12;24.83;;;15.50;;
43606;SDS011;29197;44.788;10.366;2022-12-17T13:43:15;45.55;;;26.85;;
43606;SDS011;29197;44.788;10.366;2022-12-17T13:46:14;35.65;;;21.08;;
43606;SDS011;29197;44.788;10.366;2022-12-17T13:49:15;34.90;;;21.30;;
43606;SDS011;29197;44.788;10.366;2022-12-17T13:52:06;34.00;;;19.47;;
43606;SDS011;29197;44.788;10.366;2022-12-17T13:55:08;25.87;;;17.73;;
43606;SDS011;29197;44.788;10.366;2022-12-17T13:58:03;28.30;;;18.47;;
43606;SDS011;29197;44.788;10.366;2022-12-17T14:01:02;27.47;;;17.57;;
43606;SDS011;29197;44.788;10.366;2022-12-17T14:03:57;22.87;;;15.50;;
43606;SDS011;29197;44.788;10.366;2022-12-17T14:06:53;22.87;;;15.70;;
43606;SDS011;29197;44.788;10.366;2022-12-17T14:09:45;24.03;;;17.57;;
43606;SDS011;29197;44.788;10.366;2022-12-17T14:12:35;23.43;;;16.93;;
43606;SDS011;29197;44.788;10.366;2022-12-17T14:15:25;28.20;;;18.27;;
43606;SDS011;29197;44.788;10.366;2022-12-17T14:18:18;24.43;;;17.33;;
43606;SDS011;29197;44.788;10.366;2022-12-17T14:21:09;23.13;;;15.23;;
43606;SDS011;29197;44.788;10.366;2022-12-17T14:23:59;25.27;;;15.27;;
43606;SDS011;29197;44.788;10.366;2022-12-17T14:26:49;21.23;;;14.33;;
43606;SDS011;29197;44.788;10.366;2022-12-17T14:29:44;22.13;;;14.30;;
43606;SDS011;29197;44.788;10.366;2022-12-17T14:32:34;21.37;;;14.77;;
43606;SDS011;29197;44.788;10.366;2022-12-17T14:35:24;22.67;;;14.20;;
43606;SDS011;29197;44.788;10.366;2022-12-17T14:38:17;22.70;;;15.27;;
43606;SDS011;29197;44.788;10.366;2022-12-17T14:41:23;24.90;;;16.67;;
43606;SDS011;29197;44.788;10.366;2022-12-17T14:44:47;24.80;;;17.77;;
43606;SDS011;29197;44.788;10.366;2022-12-17T14:47:38;29.37;;;19.23;;
43606;SDS011;29197;44.788;10.366;2022-12-17T14:50:30;35.73;;;21.83;;
43606;SDS011;29197;44.788;10.366;2022-12-17T14:53:26;28.50;;;19.70;;
43606;SDS011;29197;44.788;10.366;2022-12-17T14:56:20;35.77;;;21.47;;
43606;SDS011;29197;44.788;10.366;2022-12-17T14:59:20;31.97;;;21.47;;
43606;SDS011;29197;44.788;10.366;2022-12-17T15:02:17;36.77;;;23.63;;
43606;SDS011;29197;44.788;10.366;2022-12-17T15:05:11;37.63;;;22.37;;
43606;SDS011;29197;44.788;10.366;2022-12-17T15:08:02;37.13;;;23.27;;
43606;SDS011;29197;44.788;10.366;2022-12-17T15:10:54;38.97;;;22.90;;
43606;SDS011;29197;44.788;10.366;2022-12-17T15:13:44;34.07;;;22.83;;
43606;SDS011;29197;44.788;10.366;2022-12-17T15:16:41;34.00;;;22.50;;
43606;SDS011;29197;44.788;10.366;2022-12-17T15:19:32;32.43;;;21.93;;
43606;SDS011;29197;44.788;10.366;2022-12-17T15:22:21;34.90;;;22.10;;
43606;SDS011;29197;44.788;10.366;2022-12-17T15:25:11;35.17;;;21.67;;
43606;SDS011;29197;44.788;10.366;2022-12-17T15:28:03;37.53;;;23.37;;
43606;SDS011;29197;44.788;10.366;2022-12-17T15:30:52;38.20;;;23.37;;
43606;SDS011;29197;44.788;10.366;2022-12-17T15:33:42;35.13;;;21.87;;
43606;SDS011;29197;44.788;10.366;2022-12-17T15:36:31;31.57;;;21.73;;
43606;SDS011;29197;44.788;10.366;2022-12-17T15:39:20;34.17;;;22.63;;
43606;SDS011;29197;44.788;10.366;2022-12-17T15:42:09;33.80;;;21.50;;
43606;SDS011;29197;44.788;10.366;2022-12-17T15:45:17;34.37;;;21.87;;
43606;SDS011;29197;44.788;10.366;2022-12-17T15:48:06;33.47;;;22.37;;
43606;SDS011;29197;44.788;10.366;2022-12-17T15:50:55;40.57;;;22.40;;
43606;SDS011;29197;44.788;10.366;2022-12-17T15:53:44;43.30;;;23.23;;
43606;SDS011;29197;44.788;10.366;2022-12-17T15:56:33;37.30;;;22.30;;
43606;SDS011;29197;44.788;10.366;2022-12-17T15:59:23;30.80;;;19.97;;
43606;SDS011;29197;44.788;10.366;2022-12-17T16:02:13;33.60;;;22.03;;
43606;SDS011;29197;44.788;10.366;2022-12-17T16:05:02;32.93;;;22.07;;
43606;SDS011;29197;44.788;10.366;2022-12-17T16:07:52;33.80;;;21.93;;
43606;SDS011;29197;44.788;10.366;2022-12-17T16:10:45;36.67;;;22.00;;
43606;SDS011;29197;44.788;10.366;2022-12-17T16:13:34;36.17;;;22.77;;
43606;SDS011;29197;44.788;10.366;2022-12-17T16:16:24;35.27;;;21.17;;
43606;SDS011;29197;44.788;10.366;2022-12-17T16:19:15;33.13;;;21.03;;
43606;SDS011;29197;44.788;10.366;2022-12-17T16:22:05;31.53;;;20.57;;
43606;SDS011;29197;44.788;10.366;2022-12-17T16:24:54;35.87;;;21.47;;
43606;SDS011;29197;44.788;10.366;2022-12-17T16:27:43;58.40;;;30.97;;
43606;SDS011;29197;44.788;10.366;2022-12-17T16:30:32;79.30;;;37.73;;
43606;SDS011;29197;44.788;10.366;2022-12-17T16:33:21;45.43;;;27.20;;
43606;SDS011;29197;44.788;10.366;2022-12-17T16:36:12;36.80;;;23.57;;
43606;SDS011;29197;44.788;10.366;2022-12-17T16:39:03;36.70;;;21.87;;
43606;SDS011;29197;44.788;10.366;2022-12-17T16:41:52;38.17;;;22.83;;
43606;SDS011;29197;44.788;10.366;2022-12-17T16:44:42;36.83;;;21.83;;
43606;SDS011;29197;44.788;10.366;2022-12-17T16:47:31;35.87;;;22.90;;
43606;SDS011;29197;44.788;10.366;2022-12-17T16:50:20;37.90;;;22.73;;
43606;SDS011;29197;44.788;10.366;2022-12-17T16:53:12;35.10;;;21.93;;
43606;SDS011;29197;44.788;10.366;2022-12-17T16:56:02;36.80;;;22.07;;
43606;SDS011;29197;44.788;10.366;2022-12-17T16:58:52;34.07;;;22.27;;
43606;SDS011;29197;44.788;10.366;2022-12-17T17:01:41;38.53;;;25.33;;
43606;SDS011;29197;44.788;10.366;2022-12-17T17:04:32;35.03;;;21.67;;
43606;SDS011;29197;44.788;10.366;2022-12-17T17:07:22;31.33;;;20.73;;
43606;SDS011;29197;44.788;10.366;2022-12-17T17:10:13;32.57;;;20.93;;
43606;SDS011;29197;44.788;10.366;2022-12-17T17:13:02;32.30;;;20.67;;
43606;SDS011;29197;44.788;10.366;2022-12-17T17:15:51;34.30;;;20.87;;
43606;SDS011;29197;44.788;10.366;2022-12-17T17:18:40;34.17;;;20.87;;
43606;SDS011;29197;44.788;10.366;2022-12-17T17:21:30;34.90;;;21.30;;
43606;SDS011;29197;44.788;10.366;2022-12-17T17:24:21;33.57;;;20.53;;
43606;SDS011;29197;44.788;10.366;2022-12-17T17:27:13;33.23;;;20.47;;
43606;SDS011;29197;44.788;10.366;2022-12-17T17:30:03;32.63;;;19.73;;
43606;SDS011;29197;44.788;10.366;2022-12-17T17:32:53;27.53;;;18.93;;
43606;SDS011;29197;44.788;10.366;2022-12-17T17:35:43;30.33;;;19.47;;
43606;SDS011;29197;44.788;10.366;2022-12-17T17:38:32;29.30;;;19.73;;
43606;SDS011;29197;44.788;10.366;2022-12-17T17:41:22;30.23;;;19.63;;
43606;SDS011;29197;44.788;10.366;2022-12-17T17:44:14;29.83;;;19.00;;
43606;SDS011;29197;44.788;10.366;2022-12-17T17:47:03;31.00;;;18.80;;
43606;SDS011;29197;44.788;10.366;2022-12-17T17:49:52;35.20;;;20.10;;
43606;SDS011;29197;44.788;10.366;2022-12-17T17:52:42;31.27;;;19.77;;
43606;SDS011;29197;44.788;10.366;2022-12-17T17:55:32;30.67;;;19.27;;
43606;SDS011;29197;44.788;10.366;2022-12-17T17:58:22;27.80;;;20.05;;
43606;SDS011;29197;44.788;10.366;2022-12-17T18:01:13;31.87;;;19.37;;
43606;SDS011;29197;44.788;10.366;2022-12-17T18:04:04;30.10;;;19.93;;
43606;SDS011;29197;44.788;10.366;2022-12-17T18:06:54;31.03;;;19.80;;
43606;SDS011;29197;44.788;10.366;2022-12-17T18:10:04;31.10;;;19.27;;
43606;SDS011;29197;44.788;10.366;2022-12-17T18:12:54;32.80;;;18.83;;
43606;SDS011;29197;44.788;10.366;2022-12-17T18:16:00;39.70;;;23.30;;
43606;SDS011;29197;44.788;10.366;2022-12-17T18:18:52;34.60;;;20.13;;
43606;SDS011;29197;44.788;10.366;2022-12-17T18:21:41;36.10;;;22.30;;
43606;SDS011;29197;44.788;10.366;2022-12-17T18:24:31;34.53;;;22.47;;
43606;SDS011;29197;44.788;10.366;2022-12-17T18:27:19;41.37;;;24.67;;
43606;SDS011;29197;44.788;10.366;2022-12-17T18:30:09;40.00;;;24.07;;
43606;SDS011;29197;44.788;10.366;2022-12-17T18:32:59;42.10;;;25.17;;
43606;SDS011;29197;44.788;10.366;2022-12-17T18:35:50;35.63;;;21.97;;
43606;SDS011;29197;44.788;10.366;2022-12-17T18:38:39;38.57;;;23.67;;
43606;SDS011;29197;44.788;10.366;2022-12-17T18:41:29;32.60;;;20.13;;
43606;SDS011;29197;44.788;10.366;2022-12-17T18:44:36;30.63;;;20.53;;
43606;SDS011;29197;44.788;10.366;2022-12-17T18:47:26;34.10;;;20.23;;
43606;SDS011;29197;44.788;10.366;2022-12-17T18:50:15;32.83;;;21.93;;
43606;SDS011;29197;44.788;10.366;2022-12-17T18:53:06;38.33;;;22.90;;
43606;SDS011;29197;44.788;10.366;2022-12-17T18:55:55;32.57;;;20.97;;
43606;SDS011;29197;44.788;10.366;2022-12-17T18:58:44;31.83;;;20.27;;
43606;SDS011;29197;44.788;10.366;2022-12-17T19:01:35;34.13;;;21.20;;
43606;SDS011;29197;44.788;10.366;2022-12-17T19:04:26;37.00;;;21.77;;
43606;SDS011;29197;44.788;10.366;2022-12-17T19:07:15;43.87;;;26.13;;
43606;SDS011;29197;44.788;10.366;2022-12-17T19:10:06;39.03;;;23.57;;
43606;SDS011;29197;44.788;10.366;2022-12-17T19:12:56;43.20;;;24.70;;
43606;SDS011;29197;44.788;10.366;2022-12-17T19:15:45;35.73;;;22.40;;
43606;SDS011;29197;44.788;10.366;2022-12-17T19:18:34;38.23;;;22.90;;
43606;SDS011;29197;44.788;10.366;2022-12-17T19:21:25;39.20;;;24.07;;
43606;SDS011;29197;44.788;10.366;2022-12-17T19:24:14;40.23;;;23.07;;
43606;SDS011;29197;44.788;10.366;2022-12-17T19:27:06;39.07;;;21.53;;
43606;SDS011;29197;44.788;10.366;2022-12-17T19:29:55;34.87;;;21.90;;
43606;SDS011;29197;44.788;10.366;2022-12-17T19:32:45;35.40;;;21.90;;
43606;SDS011;29197;44.788;10.366;2022-12-17T19:35:33;36.07;;;21.93;;
43606;SDS011;29197;44.788;10.366;2022-12-17T19:38:22;35.33;;;21.67;;
43606;SDS011;29197;44.788;10.366;2022-12-17T19:41:12;32.77;;;20.50;;
43606;SDS011;29197;44.788;10.366;2022-12-17T19:44:05;34.03;;;21.07;;
43606;SDS011;29197;44.788;10.366;2022-12-17T19:46:56;37.90;;;21.63;;
43606;SDS011;29197;44.788;10.366;2022-12-17T19:49:45;33.90;;;21.57;;
43606;SDS011;29197;44.788;10.366;2022-12-17T19:52:34;31.97;;;19.83;;
43606;SDS011;29197;44.788;10.366;2022-12-17T19:55:26;33.37;;;21.20;;
43606;SDS011;29197;44.788;10.366;2022-12-17T19:58:15;38.40;;;24.30;;
43606;SDS011;29197;44.788;10.366;2022-12-17T20:01:06;36.20;;;22.17;;
43606;SDS011;29197;44.788;10.366;2022-12-17T20:03:56;34.00;;;22.10;;
43606;SDS011;29197;44.788;10.366;2022-12-17T20:06:45;39.47;;;21.67;;
43606;SDS011;29197;44.788;10.366;2022-12-17T20:09:34;40.50;;;25.00;;
43606;SDS011;29197;44.788;10.366;2022-12-17T20:12:23;39.27;;;24.33;;
43606;SDS011;29197;44.788;10.366;2022-12-17T20:15:13;38.37;;;23.70;;
43606;SDS011;29197;44.788;10.366;2022-12-17T20:18:04;44.47;;;26.83;;
43606;SDS011;29197;44.788;10.366;2022-12-17T20:20:59;37.30;;;23.60;;
43606;SDS011;29197;44.788;10.366;2022-12-17T20:23:49;36.27;;;21.97;;
43606;SDS011;29197;44.788;10.366;2022-12-17T20:26:38;38.43;;;23.13;;
43606;SDS011;29197;44.788;10.366;2022-12-17T20:29:28;33.13;;;20.90;;
43606;SDS011;29197;44.788;10.366;2022-12-17T20:32:17;33.27;;;20.07;;
43606;SDS011;29197;44.788;10.366;2022-12-17T20:35:08;33.20;;;21.10;;
43606;SDS011;29197;44.788;10.366;2022-12-17T20:37:58;32.93;;;21.57;;
43606;SDS011;29197;44.788;10.366;2022-12-17T20:40:47;31.43;;;19.67;;
43606;SDS011;29197;44.788;10.366;2022-12-17T20:43:36;31.80;;;20.80;;
43606;SDS011;29197;44.788;10.366;2022-12-17T20:46:25;30.77;;;20.63;;
43606;SDS011;29197;44.788;10.366;2022-12-17T20:49:14;28.73;;;19.03;;
43606;SDS011;29197;44.788;10.366;2022-12-17T20:52:04;33.20;;;20.17;;